createdAt,value
2019-06-26T00:02:08.007Z,21.80
2019-06-26T00:04:36.570Z,21.80
2019-06-26T00:07:05.311Z,21.80
2019-06-26T00:09:33.938Z,21.70
2019-06-26T00:12:02.458Z,21.80
2019-06-26T00:14:31.018Z,21.70
2019-06-26T00:16:59.717Z,21.70
2019-06-26T00:19:28.338Z,21.60
2019-06-26T00:21:56.877Z,21.60
2019-06-26T00:24:25.524Z,21.60
2019-06-26T00:26:54.088Z,21.60
2019-06-26T00:29:22.643Z,21.60
2019-06-26T00:31:51.242Z,21.60
2019-06-26T00:34:20.305Z,21.60
2019-06-26T00:36:48.869Z,21.50
2019-06-26T00:39:17.502Z,21.60
2019-06-26T00:41:46.109Z,21.60
2019-06-26T00:44:14.681Z,21.60
2019-06-26T00:46:43.281Z,21.70
2019-06-26T00:49:11.837Z,21.70
2019-06-26T00:51:40.432Z,21.60
2019-06-26T00:54:09.045Z,21.60
2019-06-26T00:56:37.625Z,21.50
2019-06-26T00:59:06.164Z,21.40
2019-06-26T01:01:34.696Z,21.40
2019-06-26T01:04:07.608Z,21.50
2019-06-26T01:06:45.011Z,21.60
2019-06-26T01:09:14.726Z,21.70
2019-06-26T01:11:43.522Z,21.70
2019-06-26T01:14:12.173Z,21.60
2019-06-26T01:16:40.842Z,21.50
2019-06-26T01:19:09.413Z,21.40
2019-06-26T01:21:38.041Z,21.40
2019-06-26T01:24:06.658Z,21.30
2019-06-26T01:26:35.664Z,21.30
2019-06-26T01:29:04.415Z,21.30
2019-06-26T01:31:33.307Z,21.20
2019-06-26T01:34:02.049Z,21.10
2019-06-26T01:36:30.617Z,21.00
2019-06-26T01:38:59.271Z,21.10
2019-06-26T01:41:28.234Z,21.00
2019-06-26T01:43:56.804Z,21.00
2019-06-26T01:46:25.401Z,21.00
2019-06-26T01:48:53.976Z,20.90
2019-06-26T01:51:22.554Z,20.90
2019-06-26T01:53:51.153Z,20.80
2019-06-26T01:56:19.706Z,20.70
2019-06-26T01:58:48.277Z,20.70
2019-06-26T02:01:16.871Z,20.60
2019-06-26T02:03:46.149Z,20.50
2019-06-26T02:06:14.729Z,20.40
2019-06-26T02:08:43.340Z,20.20
2019-06-26T02:11:11.895Z,20.00
2019-06-26T02:13:40.457Z,19.80
2019-06-26T02:16:09.070Z,19.90
2019-06-26T02:18:47.990Z,20.00
2019-06-26T02:21:16.547Z,20.20
2019-06-26T02:23:45.246Z,20.30
2019-06-26T02:26:13.887Z,20.50
2019-06-26T02:28:42.515Z,20.50
2019-06-26T02:31:11.497Z,20.50
2019-06-26T02:33:40.060Z,20.40
2019-06-26T02:36:08.698Z,20.30
2019-06-26T02:38:37.267Z,20.30
2019-06-26T02:41:05.913Z,20.30
2019-06-26T02:43:34.559Z,20.30
2019-06-26T02:46:03.144Z,20.40
2019-06-26T02:48:31.706Z,20.40
2019-06-26T02:51:00.272Z,20.50
2019-06-26T02:53:28.895Z,20.50
2019-06-26T02:55:57.483Z,20.70
2019-06-26T02:58:26.111Z,20.70
2019-06-26T03:00:54.710Z,20.90
2019-06-26T03:03:23.272Z,21.10
2019-06-26T03:05:51.839Z,21.20
2019-06-26T03:08:20.443Z,21.30
2019-06-26T03:10:49.844Z,21.30
2019-06-26T03:13:18.425Z,21.40
2019-06-26T03:15:50.322Z,21.40
2019-06-26T03:18:17.261Z,21.20
2019-06-26T03:20:54.434Z,21.20
2019-06-26T03:23:23.262Z,21.20
2019-06-26T03:25:51.816Z,21.20
2019-06-26T03:28:20.467Z,21.20
2019-06-26T03:30:49.466Z,21.10
2019-06-26T03:33:18.042Z,21.20
2019-06-26T03:35:46.632Z,21.20
2019-06-26T03:38:16.163Z,21.20
2019-06-26T03:40:44.813Z,21.20
2019-06-26T03:43:13.649Z,21.20
2019-06-26T03:45:42.260Z,21.20
2019-06-26T03:48:10.904Z,21.30
2019-06-26T03:50:39.476Z,21.30
2019-06-26T03:53:08.092Z,21.30
2019-06-26T03:55:36.662Z,21.30
2019-06-26T03:58:05.297Z,21.30
2019-06-26T04:00:39.618Z,21.40
2019-06-26T04:03:08.726Z,21.40
2019-06-26T04:05:37.357Z,21.50
2019-06-26T04:08:06.244Z,21.60
2019-06-26T04:10:35.751Z,21.70
2019-06-26T04:13:05.042Z,21.70
2019-06-26T04:15:42.070Z,21.80
2019-06-26T04:18:03.807Z,21.90
2019-06-26T04:20:32.369Z,22.00
2019-06-26T04:23:01.300Z,22.00
2019-06-26T04:25:29.875Z,22.10
2019-06-26T04:27:58.437Z,22.20
2019-06-26T04:30:27.184Z,22.30
2019-06-26T04:32:55.717Z,22.30
2019-06-26T04:35:24.373Z,22.40
2019-06-26T04:37:52.975Z,22.40
2019-06-26T04:40:21.700Z,22.60
2019-06-26T04:42:50.343Z,22.60
2019-06-26T04:45:19.388Z,22.60
2019-06-26T04:47:47.953Z,22.70
2019-06-26T04:50:17.148Z,22.70
2019-06-26T04:52:45.759Z,22.80
2019-06-26T04:55:15.359Z,22.90
2019-06-26T04:57:43.922Z,23.10
2019-06-26T05:00:14.729Z,23.20
2019-06-26T05:02:43.296Z,23.20
2019-06-26T05:05:14.370Z,23.70
2019-06-26T05:07:43.202Z,23.80
2019-06-26T05:10:12.045Z,24.00
2019-06-26T05:12:40.588Z,23.70
2019-06-26T05:15:09.816Z,23.60
2019-06-26T05:17:38.451Z,23.90
2019-06-26T05:20:08.677Z,24.10
2019-06-26T05:22:41.258Z,24.20
2019-06-26T05:25:09.906Z,23.80
2019-06-26T05:27:38.601Z,23.70
2019-06-26T05:30:10.294Z,23.90
2019-06-26T05:32:38.930Z,23.90
2019-06-26T05:35:08.332Z,24.20
2019-06-26T05:37:36.951Z,24.10
2019-06-26T05:40:08.600Z,24.40
2019-06-26T05:42:37.176Z,24.20
2019-06-26T05:45:06.312Z,24.20
2019-06-26T05:47:34.941Z,24.20
2019-06-26T05:50:05.744Z,24.20
2019-06-26T05:52:34.442Z,24.40
2019-06-26T05:55:03.005Z,24.60
2019-06-26T05:57:32.237Z,24.70
2019-06-26T06:00:01.011Z,24.70
2019-06-26T06:02:29.542Z,24.80
2019-06-26T06:13:19.696Z,25.30
2019-06-26T06:15:48.278Z,25.30
2019-06-26T06:18:16.916Z,25.80
2019-06-26T06:20:45.667Z,25.00
2019-06-26T06:23:14.217Z,24.90
2019-06-26T06:25:42.875Z,25.30
2019-06-26T06:28:11.471Z,25.70
2019-06-26T06:30:45.060Z,25.70
2019-06-26T06:33:12.544Z,25.60
2019-06-26T06:35:41.154Z,25.80
2019-06-26T06:38:29.075Z,25.30
2019-06-26T06:40:57.739Z,25.60
2019-06-26T06:43:28.752Z,25.40
2019-06-26T06:46:01.802Z,25.70
2019-06-26T06:48:30.417Z,25.50
2019-06-26T06:50:59.214Z,25.90
2019-06-26T06:53:28.254Z,25.70
2019-06-26T06:55:56.944Z,26.20
2019-06-26T06:58:31.432Z,25.80
2019-06-26T07:01:00.167Z,25.80
2019-06-26T07:03:28.837Z,25.50
2019-06-26T07:05:57.534Z,25.70
2019-06-26T07:08:26.330Z,26.40
2019-06-26T07:10:55.003Z,26.50
2019-06-26T07:13:24.284Z,26.90
2019-06-26T07:15:52.917Z,27.10
2019-06-26T07:18:21.543Z,26.90
2019-06-26T07:20:50.112Z,26.80
2019-06-26T07:23:18.781Z,27.30
2019-06-26T07:25:47.458Z,27.00
2019-06-26T07:28:16.058Z,26.60
2019-06-26T07:30:44.689Z,26.10
2019-06-26T07:33:13.411Z,26.70
2019-06-26T07:35:42.115Z,26.90
2019-06-26T07:38:11.329Z,27.20
2019-06-26T07:40:40.022Z,27.20
2019-06-26T07:43:08.569Z,27.00
2019-06-26T07:45:37.273Z,26.60
2019-06-26T07:48:05.908Z,26.80
2019-06-26T07:50:34.580Z,27.00
2019-06-26T07:53:04.424Z,26.60
2019-06-26T07:55:33.074Z,26.60
2019-06-26T07:58:01.723Z,26.40
2019-06-26T08:00:31.731Z,26.30
2019-06-26T08:03:04.084Z,26.90
2019-06-26T08:05:30.813Z,27.90
2019-06-26T08:07:59.661Z,26.60
2019-06-26T08:10:28.310Z,26.90
2019-06-26T08:12:57.029Z,26.80
2019-06-26T08:15:25.676Z,27.10
2019-06-26T08:18:00.662Z,26.70
2019-06-26T08:20:24.732Z,26.80
2019-06-26T08:22:54.287Z,27.10
2019-06-26T08:25:22.977Z,26.80
2019-06-26T08:27:51.652Z,27.00
2019-06-26T08:30:21.014Z,27.00
2019-06-26T08:32:49.632Z,26.90
2019-06-26T08:35:18.210Z,27.50
2019-06-26T08:37:46.914Z,28.00
2019-06-26T08:40:15.698Z,27.50
2019-06-26T08:42:44.271Z,27.40
2019-06-26T08:45:13.276Z,27.10
2019-06-26T08:47:41.881Z,27.90
2019-06-26T08:50:12.192Z,27.80
2019-06-26T08:52:40.836Z,28.40
2019-06-26T08:55:09.747Z,27.80
2019-06-26T08:57:38.262Z,27.50
2019-06-26T09:00:11.604Z,28.50
2019-06-26T09:02:40.212Z,29.00
2019-06-26T09:05:09.185Z,28.40
2019-06-26T09:07:38.322Z,28.00
2019-06-26T09:10:07.974Z,28.20
2019-06-26T09:12:36.600Z,28.50
2019-06-26T09:15:08.475Z,28.50
2019-06-26T09:17:37.163Z,28.60
2019-06-26T09:20:07.625Z,28.80
2019-06-26T09:22:36.222Z,28.60
2019-06-26T09:25:21.083Z,28.40
2019-06-26T09:27:36.893Z,28.80
2019-06-26T09:30:10.532Z,28.80
2019-06-26T09:32:40.066Z,28.70
2019-06-26T09:35:09.400Z,28.30
2019-06-26T09:37:38.043Z,29.20
2019-06-26T09:40:08.948Z,29.20
2019-06-26T09:42:37.598Z,28.80
2019-06-26T09:45:09.247Z,28.50
2019-06-26T09:47:37.917Z,29.00
2019-06-26T09:50:08.092Z,28.90
2019-06-26T09:52:36.653Z,28.80
2019-06-26T09:55:06.976Z,28.80
2019-06-26T09:57:35.650Z,29.50
2019-06-26T10:00:07.524Z,29.20
2019-06-26T10:02:36.113Z,28.80
2019-06-26T10:05:06.305Z,29.00
2019-06-26T10:07:34.873Z,28.90
2019-06-26T10:10:04.058Z,29.00
2019-06-26T10:12:32.631Z,29.20
2019-06-26T10:15:01.208Z,29.40
2019-06-26T10:17:29.850Z,29.40
2019-06-26T10:19:58.405Z,29.10
2019-06-26T10:22:26.970Z,29.30
2019-06-26T10:24:56.363Z,29.30
2019-06-26T10:27:24.928Z,29.00
2019-06-26T10:29:53.475Z,29.50
2019-06-26T10:32:23.455Z,29.10
2019-06-26T10:34:52.090Z,29.00
2019-06-26T10:37:20.731Z,28.90
2019-06-26T10:39:49.467Z,28.80
2019-06-26T10:42:18.162Z,29.20
2019-06-26T10:44:47.157Z,29.50
2019-06-26T10:47:16.278Z,30.10
2019-06-26T10:49:44.912Z,29.60
2019-06-26T10:52:13.623Z,30.10
2019-06-26T10:54:44.488Z,30.00
2019-06-26T10:57:13.214Z,29.90
2019-06-26T10:59:42.016Z,29.90
2019-06-26T11:02:10.594Z,29.80
2019-06-26T11:04:39.370Z,29.70
2019-06-26T11:07:08.046Z,30.30
2019-06-26T11:09:39.074Z,29.90
2019-06-26T11:12:07.672Z,29.80
2019-06-26T11:14:36.355Z,29.70
2019-06-26T11:17:04.971Z,30.10
2019-06-26T11:19:43.448Z,29.40
2019-06-26T11:22:03.815Z,29.50
2019-06-26T11:24:32.468Z,29.80
2019-06-26T11:27:01.192Z,29.80
2019-06-26T11:29:29.769Z,29.80
2019-06-26T11:31:59.617Z,29.50
2019-06-26T11:34:28.180Z,29.90
2019-06-26T11:37:03.894Z,29.90
2019-06-26T11:39:26.985Z,30.20
2019-06-26T11:41:55.691Z,30.20
2019-06-26T11:44:24.279Z,30.00
2019-06-26T11:46:52.986Z,30.40
2019-06-26T11:49:21.675Z,30.30
2019-06-26T11:51:50.339Z,30.10
2019-06-26T11:54:19.460Z,29.90
2019-06-26T11:56:48.132Z,30.00
2019-06-26T11:59:16.710Z,30.10
2019-06-26T12:01:45.483Z,30.60
2019-06-26T12:04:13.997Z,30.20
2019-06-26T12:06:45.697Z,30.50
2019-06-26T12:09:12.864Z,30.60
2019-06-26T12:11:41.485Z,30.40
2019-06-26T12:14:10.282Z,30.90
2019-06-26T12:16:41.688Z,30.70
2019-06-26T12:19:10.386Z,30.40
2019-06-26T12:21:38.999Z,30.40
2019-06-26T12:24:07.677Z,30.20
2019-06-26T12:26:36.285Z,30.60
2019-06-26T12:29:09.182Z,30.20
2019-06-26T12:31:37.770Z,30.20
2019-06-26T12:34:06.474Z,30.30
2019-06-26T12:36:36.953Z,30.10
2019-06-26T12:39:07.759Z,30.10
2019-06-26T12:41:36.310Z,30.40
2019-06-26T12:44:05.047Z,30.10
2019-06-26T12:46:33.744Z,30.30
2019-06-26T12:49:02.449Z,30.40
2019-06-26T12:51:31.014Z,30.30
2019-06-26T12:53:59.640Z,30.50
2019-06-26T12:56:28.380Z,30.60
2019-06-26T12:58:59.795Z,30.70
2019-06-26T13:01:28.294Z,30.90
2019-06-26T13:03:57.879Z,30.80
2019-06-26T13:06:27.856Z,31.00
2019-06-26T13:08:56.535Z,30.90
2019-06-26T13:11:25.110Z,31.40
2019-06-26T13:14:02.658Z,30.90
2019-06-26T13:16:24.148Z,30.60
2019-06-26T13:18:52.705Z,30.70
2019-06-26T13:21:21.296Z,30.80
2019-06-26T13:23:49.872Z,31.10
2019-06-26T13:26:18.539Z,30.80
2019-06-26T13:28:47.085Z,31.30
2019-06-26T13:31:15.742Z,30.90
2019-06-26T13:33:44.340Z,30.80
2019-06-26T13:36:13.064Z,31.10
2019-06-26T13:38:41.707Z,30.70
2019-06-26T13:41:10.429Z,31.00
2019-06-26T13:43:39.027Z,31.00
2019-06-26T13:46:08.377Z,31.10
2019-06-26T13:48:37.119Z,30.90
2019-06-26T13:51:09.909Z,31.50
2019-06-26T13:53:37.088Z,31.60
2019-06-26T13:56:05.755Z,31.10
2019-06-26T13:58:34.339Z,31.10
2019-06-26T14:01:02.992Z,30.90
2019-06-26T14:03:31.940Z,31.00
2019-06-26T14:06:00.509Z,31.10
2019-06-26T14:08:32.814Z,31.30
2019-06-26T14:11:00.657Z,31.50
2019-06-26T14:13:29.274Z,31.70
2019-06-26T14:15:57.885Z,31.40
2019-06-26T14:18:29.545Z,31.40
2019-06-26T14:20:56.708Z,31.50
2019-06-26T14:23:25.472Z,31.20
2019-06-26T14:25:54.060Z,31.30
2019-06-26T14:28:22.625Z,31.30
2019-06-26T14:30:51.369Z,31.50
2019-06-26T14:33:19.937Z,31.50
2019-06-26T14:35:48.713Z,31.10
2019-06-26T14:38:17.553Z,31.20
2019-06-26T14:40:46.216Z,31.50
2019-06-26T14:43:15.199Z,31.30
2019-06-26T14:45:44.931Z,31.30
2019-06-26T14:48:13.511Z,31.40
2019-06-26T14:50:42.067Z,31.30
2019-06-26T14:53:10.845Z,31.50
2019-06-26T14:55:39.450Z,31.60
2019-06-26T14:58:08.086Z,31.50
2019-06-26T15:00:36.874Z,31.50
2019-06-26T15:03:13.234Z,31.20
2019-06-26T15:05:42.125Z,31.10
2019-06-26T15:08:10.658Z,31.10
2019-06-26T15:10:39.272Z,31.40
2019-06-26T15:13:07.924Z,31.50
2019-06-26T15:15:37.169Z,31.60
2019-06-26T15:18:05.903Z,31.80
2019-06-26T15:20:34.487Z,31.60
2019-06-26T15:23:03.220Z,31.60
2019-06-26T15:25:31.925Z,31.60
2019-06-26T15:28:00.518Z,31.40
2019-06-26T15:30:29.105Z,31.30
2019-06-26T15:32:58.049Z,31.30
2019-06-26T15:35:26.664Z,31.00
2019-06-26T15:37:56.245Z,30.90
2019-06-26T15:40:24.924Z,31.20
2019-06-26T15:42:53.654Z,31.20
2019-06-26T15:45:22.247Z,31.40
2019-06-26T15:47:50.894Z,31.20
2019-06-26T15:50:19.714Z,31.40
2019-06-26T15:52:48.290Z,31.40
2019-06-26T15:55:17.022Z,31.40
2019-06-26T15:57:45.585Z,31.40
2019-06-26T16:00:14.393Z,31.00
2019-06-26T16:02:42.952Z,30.80
2019-06-26T16:05:11.753Z,30.60
2019-06-26T16:07:40.336Z,30.70
2019-06-26T16:10:09.767Z,30.60
2019-06-26T16:12:38.420Z,30.50
2019-06-26T16:15:08.058Z,30.50
2019-06-26T16:17:38.402Z,30.40
2019-06-26T16:20:07.630Z,30.30
2019-06-26T16:22:36.214Z,30.40
2019-06-26T16:25:05.915Z,30.50
2019-06-26T16:27:34.496Z,30.30
2019-06-26T16:30:03.379Z,30.20
2019-06-26T16:32:32.065Z,30.10
2019-06-26T16:35:00.637Z,30.00
2019-06-26T16:37:29.293Z,30.10
2019-06-26T16:39:58.249Z,30.10
2019-06-26T16:42:27.976Z,30.10
2019-06-26T16:44:58.177Z,30.00
2019-06-26T16:47:26.737Z,30.00
2019-06-26T16:49:55.283Z,29.90
2019-06-26T16:52:24.017Z,29.90
2019-06-26T16:54:52.750Z,29.80
2019-06-26T16:57:21.334Z,29.70
2019-06-26T16:59:49.927Z,29.70
2019-06-26T17:02:19.427Z,29.60
2019-06-26T17:04:48.879Z,29.60
2019-06-26T17:07:17.606Z,29.50
2019-06-26T17:09:46.359Z,29.50
2019-06-26T17:12:14.897Z,29.50
2019-06-26T17:14:43.500Z,29.40
2019-06-26T17:17:12.154Z,29.40
2019-06-26T17:19:40.707Z,29.30
2019-06-26T17:22:09.328Z,29.20
2019-06-26T17:24:37.881Z,29.20
2019-06-26T17:27:06.550Z,29.10
2019-06-26T17:29:35.226Z,29.10
2019-06-26T17:32:06.863Z,29.00
2019-06-26T17:34:36.046Z,29.00
2019-06-26T17:37:04.893Z,28.90
2019-06-26T17:39:33.545Z,28.80
2019-06-26T17:42:02.112Z,29.40
2019-06-26T17:44:30.784Z,29.70
2019-06-26T17:47:04.497Z,29.40
2019-06-26T17:49:31.359Z,28.90
2019-06-26T17:51:59.946Z,28.60
2019-06-26T17:54:28.513Z,28.50
2019-06-26T17:56:57.087Z,28.40
2019-06-26T17:59:25.686Z,28.30
2019-06-26T18:01:57.175Z,28.30
2019-06-26T18:04:25.767Z,28.20
2019-06-26T18:06:54.347Z,28.10
2019-06-26T18:09:22.913Z,28.00
2019-06-26T18:11:51.569Z,28.00
2019-06-26T18:14:20.182Z,27.90
2019-06-26T18:16:48.742Z,27.80
2019-06-26T18:19:17.378Z,27.80
2019-06-26T18:21:46.055Z,27.70
2019-06-26T18:24:14.619Z,27.60
2019-06-26T18:26:43.230Z,27.60
2019-06-26T18:29:11.941Z,27.50
2019-06-26T18:31:40.622Z,27.50
2019-06-26T18:34:09.283Z,27.40
2019-06-26T18:36:38.635Z,27.40
2019-06-26T18:39:13.165Z,27.30
2019-06-26T18:41:41.699Z,27.30
2019-06-26T18:44:13.533Z,27.30
2019-06-26T18:46:42.450Z,27.20
2019-06-26T18:49:19.216Z,27.20
2019-06-26T18:51:57.916Z,27.20
2019-06-26T18:54:26.611Z,27.10
2019-06-26T18:56:55.421Z,27.00
2019-06-26T18:59:24.131Z,26.90
2019-06-26T19:01:58.237Z,27.00
2019-06-26T19:04:26.557Z,27.00
2019-06-26T19:07:01.850Z,26.80
2019-06-26T19:09:26.511Z,26.90
2019-06-26T19:11:55.229Z,26.90
2019-06-26T19:14:24.011Z,26.80
2019-06-26T19:16:52.574Z,26.80
2019-06-26T19:19:21.222Z,26.70
2019-06-26T19:21:49.899Z,26.60
2019-06-26T19:24:18.564Z,26.50
2019-06-26T19:26:47.248Z,26.50
2019-06-26T19:29:15.859Z,26.50
2019-06-26T19:31:48.275Z,26.50
2019-06-26T19:34:16.855Z,26.50
2019-06-26T19:36:50.139Z,26.40
2019-06-26T19:39:15.807Z,26.40
2019-06-26T19:41:49.242Z,26.30
2019-06-26T19:44:17.785Z,26.30
2019-06-26T19:46:46.427Z,26.30
2019-06-26T19:49:23.773Z,26.30
2019-06-26T19:51:51.645Z,26.20
2019-06-26T19:54:27.581Z,26.20
2019-06-26T19:56:50.625Z,26.20
2019-06-26T19:59:22.289Z,26.10
2019-06-26T20:01:51.460Z,26.00
2019-06-26T20:04:20.428Z,25.90
2019-06-26T20:06:50.800Z,25.90
2019-06-26T20:09:23.912Z,25.70
2019-06-26T20:11:54.720Z,25.80
2019-06-26T20:14:23.424Z,25.70
2019-06-26T20:16:54.757Z,25.70
2019-06-26T20:19:24.659Z,25.70
2019-06-26T20:21:53.204Z,25.70
2019-06-26T20:24:21.826Z,25.70
2019-06-26T20:26:50.440Z,25.70
2019-06-26T20:29:19.464Z,25.70
2019-06-26T20:31:47.998Z,25.70
2019-06-26T20:34:16.809Z,25.50
2019-06-26T20:36:46.794Z,25.60
2019-06-26T20:39:18.245Z,25.50
2019-06-26T20:41:51.515Z,25.50
2019-06-26T20:44:21.647Z,25.50
2019-06-26T20:46:53.130Z,25.50
2019-06-26T20:49:20.646Z,25.50
2019-06-26T20:51:49.240Z,25.50
2019-06-26T20:54:17.988Z,25.50
2019-06-26T20:56:46.587Z,25.40
2019-06-26T20:59:15.226Z,25.50
2019-06-26T21:01:43.983Z,25.50
2019-06-26T21:04:14.883Z,25.50
2019-06-26T21:06:43.547Z,25.60
2019-06-26T21:09:12.097Z,25.60
2019-06-26T21:11:40.730Z,25.50
2019-06-26T21:14:09.363Z,25.40
2019-06-26T21:16:37.989Z,25.30
2019-06-26T21:20:05.898Z,25.30
2019-06-26T21:21:51.892Z,25.20
2019-06-26T21:24:23.807Z,25.20
2019-06-26T21:26:52.618Z,25.20
2019-06-26T21:29:24.983Z,25.20
2019-06-26T21:31:53.424Z,25.10
2019-06-26T21:34:22.085Z,25.20
2019-06-26T21:36:50.654Z,25.10
2019-06-26T21:39:19.302Z,25.10
2019-06-26T21:41:48.205Z,25.20
2019-06-26T21:44:16.761Z,25.00
2019-06-26T21:46:45.384Z,24.90
2019-06-26T21:49:14.127Z,24.80
2019-06-26T21:51:42.718Z,24.70
2019-06-26T21:54:11.299Z,24.80
2019-06-26T21:56:39.933Z,24.80
2019-06-26T21:59:09.165Z,24.80
2019-06-26T22:01:37.892Z,24.80
2019-06-26T22:04:06.697Z,24.80
2019-06-26T22:06:36.124Z,24.80
2019-06-26T22:09:06.250Z,24.80
2019-06-26T22:11:34.804Z,24.90
2019-06-26T22:14:03.366Z,24.90
2019-06-26T22:16:31.929Z,24.90
2019-06-26T22:19:00.509Z,24.90
2019-06-26T22:21:29.336Z,24.90
2019-06-26T22:23:58.002Z,24.90
2019-06-26T22:26:27.368Z,24.90
2019-06-26T22:28:55.926Z,24.90
2019-06-26T22:31:24.594Z,24.90
2019-06-26T22:33:53.154Z,24.80
2019-06-26T22:36:21.706Z,24.70
2019-06-26T22:38:50.539Z,24.80
2019-06-26T22:41:19.092Z,24.80
2019-06-26T22:43:47.566Z,24.70
2019-06-26T22:46:16.159Z,24.80
2019-06-26T22:48:58.260Z,25.00
2019-06-26T22:51:26.882Z,25.00
2019-06-26T22:53:55.430Z,25.10
2019-06-26T22:56:24.363Z,25.00
2019-06-26T22:58:58.728Z,24.90
2019-06-26T23:01:27.429Z,24.90
2019-06-26T23:03:56.173Z,24.90
2019-06-26T23:06:24.880Z,24.70
2019-06-26T23:08:53.512Z,24.70
2019-06-26T23:11:22.125Z,24.60
2019-06-26T23:13:50.726Z,24.80
2019-06-26T23:16:19.413Z,24.80
2019-06-26T23:18:47.965Z,24.80
2019-06-26T23:21:16.591Z,24.80
2019-06-26T23:23:45.215Z,24.80
2019-06-26T23:26:23.626Z,24.90
2019-06-26T23:28:44.035Z,24.90
2019-06-26T23:31:12.635Z,24.80
2019-06-26T23:33:41.201Z,24.70
2019-06-26T23:36:09.788Z,24.60
2019-06-26T23:38:38.440Z,24.60
2019-06-26T23:41:07.094Z,24.70
2019-06-26T23:43:35.812Z,24.60
2019-06-26T23:46:04.459Z,24.60
2019-06-26T23:48:33.097Z,24.60
2019-06-26T23:51:01.709Z,24.50
2019-06-26T23:53:30.598Z,24.70
2019-06-26T23:55:59.176Z,24.60
2019-06-26T23:58:27.810Z,24.60
